PRIVATE WETTERSTATION BILLIGHEIM-ALLFELD                       ZURCK
Wetterdaten: Samstag, 19.02.2022
Datum Zeit Temp. A. Temp. A. min Temp. A. max Feuchte A. Luftdruck Regen Wind Richtung Richtung Sonnenschein ET Solar Taupunkt Windchill Windben Empfang
19.02.2022 00:00 7,7 C 7,7 C 7,8 C 64 % 1008,3 hPa 0,0 l/m 9,7 km/h (2 Bft) W 270 0 min 0,076 mm 0 W/m 1,3 C 5,2 C 30,6 km/h (5 Bft) 97 %
19.02.2022 00:10 7,5 C 7,5 C 7,7 C 61 % 1008,5 hPa 0,0 l/m 12,9 km/h (3 Bft) W 270 0 min 0,000 mm 0 W/m 0,5 C 3,1 C 48,3 km/h (6 Bft) 89 %
19.02.2022 00:20 7,4 C 7,4 C 7,6 C 62 % 1008,5 hPa 0,0 l/m 11,3 km/h (2 Bft) W-SW 247 0 min 0,000 mm 0 W/m 0,6 C 3,9 C 48,3 km/h (6 Bft) 98 %
19.02.2022 00:30 7,3 C 7,3 C 7,4 C 61 % 1008,8 hPa 0,0 l/m 14,5 km/h (3 Bft) W-SW 247 0 min 0,000 mm 0 W/m 0,3 C 2,1 C 41,8 km/h (6 Bft) 97 %
19.02.2022 00:40 7,3 C 7,3 C 7,3 C 62 % 1008,8 hPa 0,0 l/m 11,3 km/h (2 Bft) W 270 0 min 0,000 mm 0 W/m 0,5 C 3,8 C 37,0 km/h (5 Bft) 98 %
19.02.2022 00:50 7,2 C 7,2 C 7,3 C 63 % 1009,0 hPa 0,0 l/m 11,3 km/h (2 Bft) W-SW 247 0 min 0,000 mm 0 W/m 0,6 C 3,7 C 33,8 km/h (5 Bft) 97 %
19.02.2022 01:00 7,1 C 7,1 C 7,2 C 63 % 1009,2 hPa 0,0 l/m 8,0 km/h (2 Bft) W-SW 247 0 min 0,051 mm 0 W/m 0,5 C 5,8 C 30,6 km/h (5 Bft) 96 %
19.02.2022 01:10 7,1 C 7,1 C 7,1 C 63 % 1009,3 hPa 0,0 l/m 14,5 km/h (3 Bft) W-SW 247 0 min 0,000 mm 0 W/m 0,5 C 1,9 C 45,1 km/h (6 Bft) 98 %
19.02.2022 01:20 7,1 C 7,1 C 7,1 C 62 % 1009,7 hPa 0,0 l/m 16,1 km/h (3 Bft) W-SW 247 0 min 0,000 mm 0 W/m 0,3 C 1,1 C 49,9 km/h (6 Bft) 98 %
19.02.2022 01:30 7,0 C 7,0 C 7,1 C 61 % 1009,8 hPa 0,0 l/m 19,3 km/h (3 Bft) W-SW 247 0 min 0,000 mm 0 W/m 0,0 C -0,3 C 45,1 km/h (6 Bft) 98 %
19.02.2022 01:40 6,9 C 6,9 C 7,0 C 62 % 1009,8 hPa 0,0 l/m 12,9 km/h (3 Bft) W-SW 247 0 min 0,000 mm 0 W/m 0,1 C 2,4 C 37,0 km/h (5 Bft) 97 %
19.02.2022 01:50 6,8 C 6,8 C 6,9 C 62 % 1010,0 hPa 0,0 l/m 16,1 km/h (3 Bft) W-SW 247 0 min 0,000 mm 0 W/m 0,0 C 0,7 C 40,2 km/h (6 Bft) 98 %
19.02.2022 02:00 6,6 C 6,6 C 6,8 C 62 % 1010,1 hPa 0,0 l/m 11,3 km/h (2 Bft) W 270 0 min 0,051 mm 0 W/m -0,1 C 3,0 C 30,6 km/h (5 Bft) 98 %
19.02.2022 02:10 6,5 C 6,5 C 6,6 C 62 % 1010,2 hPa 0,0 l/m 9,7 km/h (2 Bft) W 270 0 min 0,000 mm 0 W/m -0,2 C 3,9 C 45,1 km/h (6 Bft) 98 %
19.02.2022 02:20 6,4 C 6,4 C 6,5 C 63 % 1010,2 hPa 0,0 l/m 12,9 km/h (3 Bft) W 270 0 min 0,000 mm 0 W/m -0,1 C 1,9 C 37,0 km/h (5 Bft) 98 %
19.02.2022 02:30 6,5 C 6,4 C 6,5 C 63 % 1010,1 hPa 0,0 l/m 11,3 km/h (2 Bft) W-SW 247 0 min 0,000 mm 0 W/m -0,0 C 2,9 C 37,0 km/h (5 Bft) 98 %
19.02.2022 02:40 6,4 C 6,4 C 6,5 C 64 % 1010,2 hPa 0,0 l/m 11,3 km/h (2 Bft) W-SW 247 0 min 0,000 mm 0 W/m 0,1 C 2,8 C 41,8 km/h (6 Bft) 98 %
19.02.2022 02:50 6,4 C 6,3 C 6,4 C 64 % 1010,5 hPa 0,0 l/m 12,9 km/h (3 Bft) W-SW 247 0 min 0,000 mm 0 W/m 0,1 C 1,9 C 53,1 km/h (7 Bft) 97 %
19.02.2022 03:00 6,2 C 6,2 C 6,4 C 64 % 1010,8 hPa 0,0 l/m 12,9 km/h (3 Bft) W-SW 247 0 min 0,051 mm 0 W/m -0,1 C 1,6 C 40,2 km/h (6 Bft) 97 %
19.02.2022 03:10 6,2 C 6,2 C 6,2 C 63 % 1010,8 hPa 0,0 l/m 14,5 km/h (3 Bft) W-SW 247 0 min 0,000 mm 0 W/m -0,3 C 0,8 C 41,8 km/h (6 Bft) 98 %
19.02.2022 03:20 6,1 C 6,1 C 6,2 C 63 % 1011,0 hPa 0,0 l/m 20,9 km/h (4 Bft) W-SW 247 0 min 0,000 mm 0 W/m -0,4 C -2,1 C 49,9 km/h (6 Bft) 98 %
19.02.2022 03:30 6,0 C 6,0 C 6,1 C 64 % 1011,0 hPa 0,0 l/m 22,5 km/h (4 Bft) W-SW 247 0 min 0,000 mm 0 W/m -0,3 C -2,8 C 46,7 km/h (6 Bft) 97 %
19.02.2022 03:40 5,8 C 5,8 C 6,0 C 64 % 1011,2 hPa 0,0 l/m 17,7 km/h (3 Bft) W-SW 247 0 min 0,000 mm 0 W/m -0,5 C -1,2 C 53,1 km/h (7 Bft) 97 %
19.02.2022 03:50 5,7 C 5,7 C 5,8 C 65 % 1011,3 hPa 0,0 l/m 14,5 km/h (3 Bft) W-SW 247 0 min 0,000 mm 0 W/m -0,4 C 0,2 C 43,5 km/h (6 Bft) 98 %
19.02.2022 04:00 5,6 C 5,6 C 5,7 C 65 % 1011,6 hPa 0,0 l/m 8,0 km/h (2 Bft) W 270 0 min 0,051 mm 0 W/m -0,4 C 4,2 C 33,8 km/h (5 Bft) 97 %
19.02.2022 04:10 5,5 C 5,4 C 5,6 C 65 % 1011,8 hPa 0,0 l/m 17,7 km/h (3 Bft) W-SW 247 0 min 0,000 mm 0 W/m -0,5 C -1,6 C 53,1 km/h (7 Bft) 97 %
19.02.2022 04:20 5,4 C 5,4 C 5,5 C 65 % 1012,1 hPa 0,0 l/m 16,1 km/h (3 Bft) W-SW 247 0 min 0,000 mm 0 W/m -0,6 C -1,0 C 49,9 km/h (6 Bft) 97 %
19.02.2022 04:30 5,3 C 5,3 C 5,4 C 65 % 1012,1 hPa 0,0 l/m 17,7 km/h (3 Bft) W-SW 247 0 min 0,000 mm 0 W/m -0,7 C -1,8 C 53,1 km/h (7 Bft) 98 %
19.02.2022 04:40 5,2 C 5,2 C 5,3 C 65 % 1012,2 hPa 0,0 l/m 19,3 km/h (3 Bft) W-SW 247 0 min 0,000 mm 0 W/m -0,8 C -2,6 C 43,5 km/h (6 Bft) 97 %
19.02.2022 04:50 5,2 C 5,2 C 5,2 C 65 % 1012,3 hPa 0,0 l/m 20,9 km/h (4 Bft) W-SW 247 0 min 0,000 mm 0 W/m -0,8 C -3,3 C 45,1 km/h (6 Bft) 97 %
19.02.2022 05:00 5,1 C 5,1 C 5,2 C 66 % 1012,6 hPa 0,0 l/m 14,5 km/h (3 Bft) W-SW 247 0 min 0,051 mm 0 W/m -0,7 C -0,5 C 37,0 km/h (5 Bft) 98 %
19.02.2022 05:10 4,9 C 4,9 C 5,1 C 66 % 1012,8 hPa 0,0 l/m 9,7 km/h (2 Bft) W-SW 247 0 min 0,000 mm 0 W/m -0,9 C 2,2 C 35,4 km/h (5 Bft) 97 %
19.02.2022 05:20 4,9 C 4,9 C 4,9 C 67 % 1013,2 hPa 0,0 l/m 12,9 km/h (3 Bft) W-SW 247 0 min 0,000 mm 0 W/m -0,7 C 0,1 C 38,6 km/h (5 Bft) 98 %
19.02.2022 05:30 5,0 C 4,9 C 5,0 C 67 % 1013,4 hPa 0,0 l/m 14,5 km/h (3 Bft) W-SW 247 0 min 0,000 mm 0 W/m -0,6 C -0,7 C 38,6 km/h (5 Bft) 98 %
19.02.2022 05:40 4,9 C 4,9 C 5,0 C 67 % 1013,3 hPa 0,0 l/m 14,5 km/h (3 Bft) W-SW 247 0 min 0,000 mm 0 W/m -0,7 C -0,8 C 37,0 km/h (5 Bft) 98 %
19.02.2022 05:50 4,8 C 4,8 C 4,9 C 67 % 1013,4 hPa 0,0 l/m 16,1 km/h (3 Bft) W-SW 247 0 min 0,000 mm 0 W/m -0,8 C -1,7 C 46,7 km/h (6 Bft) 98 %
19.02.2022 06:00 4,7 C 4,7 C 4,8 C 67 % 1013,8 hPa 0,0 l/m 11,3 km/h (2 Bft) W 270 0 min 0,051 mm 0 W/m -0,9 C 0,9 C 40,2 km/h (6 Bft) 98 %
19.02.2022 06:10 4,6 C 4,6 C 4,7 C 67 % 1014,1 hPa 0,0 l/m 17,7 km/h (3 Bft) W-SW 247 0 min 0,000 mm 0 W/m -1,0 C -2,7 C 41,8 km/h (6 Bft) 98 %
19.02.2022 06:20 4,5 C 4,5 C 4,7 C 68 % 1014,4 hPa 0,0 l/m 17,7 km/h (3 Bft) W-SW 247 0 min 0,000 mm 0 W/m -0,9 C -2,8 C 41,8 km/h (6 Bft) 85 %
19.02.2022 06:30 4,5 C 4,5 C 4,6 C 68 % 1014,4 hPa 0,0 l/m 16,1 km/h (3 Bft) W-SW 247 0 min 0,000 mm 0 W/m -0,9 C -2,1 C 46,7 km/h (6 Bft) 98 %
19.02.2022 06:40 4,3 C 4,3 C 4,5 C 69 % 1014,5 hPa 0,0 l/m 9,7 km/h (2 Bft) W-SW 247 0 min 0,000 mm 0 W/m -0,9 C 1,5 C 27,4 km/h (4 Bft) 98 %
19.02.2022 06:50 4,2 C 4,2 C 4,3 C 69 % 1014,5 hPa 0,0 l/m 12,9 km/h (3 Bft) W-SW 247 0 min 0,000 mm 0 W/m -1,0 C -0,7 C 33,8 km/h (5 Bft) 97 %
19.02.2022 07:00 4,2 C 4,2 C 4,2 C 69 % 1014,4 hPa 0,0 l/m 12,9 km/h (3 Bft) W-SW 247 0 min 0,051 mm 0 W/m -1,0 C -0,7 C 38,6 km/h (5 Bft) 98 %
19.02.2022 07:10 4,1 C 4,1 C 4,2 C 69 % 1014,7 hPa 0,0 l/m 12,9 km/h (3 Bft) W-SW 247 0 min 0,000 mm 0 W/m -1,1 C -0,8 C 32,2 km/h (5 Bft) 97 %
19.02.2022 07:20 4,1 C 4,1 C 4,1 C 70 % 1014,8 hPa 0,0 l/m 12,9 km/h (3 Bft) W 270 0 min 0,000 mm 0 W/m -0,9 C -0,8 C 37,0 km/h (5 Bft) 98 %
19.02.2022 07:30 4,0 C 4,0 C 4,1 C 70 % 1015,1 hPa 0,0 l/m 12,9 km/h (3 Bft) W-SW 247 0 min 0,000 mm 5 W/m -1,0 C -1,0 C 37,0 km/h (5 Bft) 98 %
19.02.2022 07:40 4,0 C 4,0 C 4,0 C 69 % 1015,4 hPa 0,0 l/m 16,1 km/h (3 Bft) W-SW 247 0 min 0,000 mm 9 W/m -1,2 C -2,7 C 35,4 km/h (5 Bft) 98 %
19.02.2022 07:50 4,0 C 4,0 C 4,1 C 70 % 1015,5 hPa 0,0 l/m 16,1 km/h (3 Bft) W-SW 247 0 min 0,000 mm 16 W/m -1,0 C -2,7 C 41,8 km/h (6 Bft) 98 %
19.02.2022 08:00 3,9 C 3,9 C 4,0 C 70 % 1015,7 hPa 0,0 l/m 14,5 km/h (3 Bft) W-SW 247 0 min 0,051 mm 23 W/m -1,1 C -2,0 C 38,6 km/h (5 Bft) 98 %
19.02.2022 08:10 4,0 C 3,9 C 4,0 C 70 % 1016,1 hPa 0,0 l/m 19,3 km/h (3 Bft) W-SW 247 0 min 0,000 mm 28 W/m -1,0 C -4,2 C 41,8 km/h (6 Bft) 98 %
19.02.2022 08:20 4,0 C 3,9 C 4,0 C 70 % 1016,2 hPa 0,0 l/m 19,3 km/h (3 Bft) W-SW 247 0 min 0,000 mm 44 W/m -1,0 C -4,2 C 38,6 km/h (5 Bft) 98 %
19.02.2022 08:30 4,1 C 4,0 C 4,1 C 70 % 1016,4 hPa 0,0 l/m 20,9 km/h (4 Bft) W 270 0 min 0,000 mm 60 W/m -0,9 C -4,7 C 40,2 km/h (6 Bft) 97 %
19.02.2022 08:40 4,1 C 4,1 C 4,1 C 70 % 1016,4 hPa 0,0 l/m 20,9 km/h (4 Bft) W-SW 247 0 min 0,000 mm 46 W/m -0,9 C -4,7 C 43,5 km/h (6 Bft) 98 %
19.02.2022 08:50 4,4 C 4,1 C 4,4 C 70 % 1016,4 hPa 0,0 l/m 20,9 km/h (4 Bft) W 270 10 min 0,000 mm 171 W/m -0,6 C -4,3 C 40,2 km/h (6 Bft) 98 %
19.02.2022 09:00 4,6 C 4,4 C 4,6 C 69 % 1017,0 hPa 0,0 l/m 22,5 km/h (4 Bft) W 270 10 min 0,076 mm 190 W/m -0,6 C -4,6 C 45,1 km/h (6 Bft) 98 %
19.02.2022 09:10 4,7 C 4,6 C 4,7 C 68 % 1017,1 hPa 0,0 l/m 20,9 km/h (4 Bft) W-SW 247 10 min 0,000 mm 214 W/m -0,7 C -3,9 C 43,5 km/h (6 Bft) 97 %
19.02.2022 09:20 4,9 C 4,7 C 4,9 C 69 % 1017,2 hPa 0,0 l/m 12,9 km/h (3 Bft) W-SW 247 10 min 0,000 mm 243 W/m -0,3 C 0,1 C 29,0 km/h (5 Bft) 97 %
19.02.2022 09:40 5,2 C 4,7 C 5,2 C 67 % 1017,5 hPa 0,0 l/m 12,5 km/h (3 Bft) W 261 20 min 0,000 mm 279 W/m -0,4 C 0,7 C 35,4 km/h (5 Bft) 100 %
19.02.2022 09:50 5,1 C 5,1 C 5,2 C 67 % 1017,5 hPa 0,0 l/m 21,3 km/h (4 Bft) W-SW 256 10 min 0,000 mm 302 W/m -0,5 C -3,5 C 41,8 km/h (6 Bft) 100 %
19.02.2022 10:00 5,1 C 5,1 C 5,1 C 67 % 1017,8 hPa 0,0 l/m 19,1 km/h (3 Bft) W 267 0 min 0,050 mm 72 W/m -0,5 C -2,7 C 35,4 km/h (5 Bft) 100 %
19.02.2022 10:10 5,2 C 5,1 C 5,2 C 66 % 1018,0 hPa 0,0 l/m 17,8 km/h (3 Bft) SW 230 10 min 0,000 mm 390 W/m -0,6 C -2,0 C 35,4 km/h (5 Bft) 100 %
19.02.2022 10:20 5,3 C 5,2 C 5,3 C 67 % 1018,3 hPa 0,0 l/m 16,7 km/h (3 Bft) W 273 10 min 0,000 mm 200 W/m -0,3 C -1,4 C 38,6 km/h (5 Bft) 100 %
19.02.2022 10:30 5,4 C 5,3 C 5,4 C 66 % 1018,3 hPa 0,0 l/m 17,1 km/h (3 Bft) W 261 0 min 0,000 mm 114 W/m -0,4 C -1,4 C 33,8 km/h (5 Bft) 100 %
19.02.2022 10:40 5,6 C 5,4 C 5,6 C 65 % 1018,4 hPa 0,0 l/m 13,2 km/h (3 Bft) W 259 10 min 0,000 mm 503 W/m -0,4 C 0,8 C 37,0 km/h (5 Bft) 90 %
19.02.2022 10:50 6,0 C 5,6 C 6,0 C 64 % 1018,3 hPa 0,0 l/m 15,2 km/h (3 Bft) W 267 10 min 0,000 mm 459 W/m -0,3 C 0,2 C 33,8 km/h (5 Bft) 100 %
19.02.2022 11:00 6,1 C 6,0 C 6,2 C 63 % 1018,3 hPa 0,0 l/m 16,6 km/h (3 Bft) W-SW 247 10 min 0,177 mm 554 W/m -0,4 C -0,3 C 38,6 km/h (5 Bft) 100 %
19.02.2022 11:10 6,1 C 6,0 C 6,1 C 63 % 1018,3 hPa 0,0 l/m 17,3 km/h (3 Bft) W 267 10 min 0,000 mm 469 W/m -0,4 C -0,7 C 40,2 km/h (6 Bft) 100 %
19.02.2022 11:20 5,8 C 5,8 C 6,1 C 64 % 1018,4 hPa 0,0 l/m 20,6 km/h (4 Bft) W-SW 241 10 min 0,000 mm 455 W/m -0,5 C -2,4 C 41,8 km/h (6 Bft) 100 %
19.02.2022 11:30 5,9 C 5,8 C 5,9 C 63 % 1018,4 hPa 0,0 l/m 18,8 km/h (3 Bft) SW 230 10 min 0,000 mm 476 W/m -0,6 C -1,5 C 35,4 km/h (5 Bft) 100 %
19.02.2022 11:40 6,1 C 5,9 C 6,1 C 63 % 1018,4 hPa 0,0 l/m 15,6 km/h (3 Bft) W 261 10 min 0,000 mm 497 W/m -0,4 C 0,1 C 38,6 km/h (5 Bft) 100 %
19.02.2022 11:50 6,3 C 6,1 C 6,3 C 63 % 1018,6 hPa 0,0 l/m 13,4 km/h (3 Bft) SW 234 10 min 0,000 mm 547 W/m -0,2 C 1,5 C 38,6 km/h (5 Bft) 100 %
19.02.2022 12:00 6,4 C 6,3 C 6,4 C 63 % 1018,5 hPa 0,0 l/m 9,3 km/h (2 Bft) SW 223 10 min 0,204 mm 533 W/m -0,1 C 4,1 C 38,6 km/h (5 Bft) 99 %
19.02.2022 12:10 6,4 C 6,4 C 6,4 C 63 % 1018,5 hPa 0,0 l/m 13,4 km/h (3 Bft) W-SW 254 10 min 0,000 mm 554 W/m -0,1 C 1,6 C 38,6 km/h (5 Bft) 99 %
19.02.2022 12:20 6,7 C 6,4 C 6,7 C 61 % 1018,4 hPa 0,0 l/m 14,1 km/h (3 Bft) W 271 10 min 0,000 mm 526 W/m -0,3 C 1,6 C 33,8 km/h (5 Bft) 89 %
19.02.2022 12:30 6,7 C 6,7 C 6,8 C 60 % 1018,4 hPa 0,0 l/m 15,1 km/h (3 Bft) W-SW 252 10 min 0,000 mm 362 W/m -0,5 C 1,1 C 35,4 km/h (5 Bft) 98 %
19.02.2022 12:40 6,8 C 6,7 C 6,8 C 61 % 1018,4 hPa 0,0 l/m 15,9 km/h (3 Bft) W-SW 240 10 min 0,000 mm 515 W/m -0,2 C 0,8 C 35,4 km/h (5 Bft) 97 %
19.02.2022 12:50 7,2 C 6,8 C 7,2 C 58 % 1018,4 hPa 0,0 l/m 12,6 km/h (3 Bft) W 259 10 min 0,000 mm 330 W/m -0,5 C 3,0 C 32,2 km/h (5 Bft) 98 %
19.02.2022 13:00 7,1 C 7,1 C 7,2 C 58 % 1018,1 hPa 0,0 l/m 14,7 km/h (3 Bft) S 171 10 min 0,228 mm 399 W/m -0,6 C 1,8 C 37,0 km/h (5 Bft) 97 %
19.02.2022 13:10 7,1 C 7,0 C 7,1 C 57 % 1018,1 hPa 0,0 l/m 11,7 km/h (2 Bft) W 268 10 min 0,000 mm 508 W/m -0,8 C 3,3 C 37,0 km/h (5 Bft) 97 %
19.02.2022 13:20 7,4 C 7,1 C 7,4 C 58 % 1018,1 hPa 0,0 l/m 10,0 km/h (2 Bft) W 259 10 min 0,000 mm 519 W/m -0,3 C 4,7 C 32,2 km/h (5 Bft) 98 %
19.02.2022 13:30 7,5 C 7,4 C 7,5 C 56 % 1018,0 hPa 0,0 l/m 12,0 km/h (2 Bft) W 265 10 min 0,000 mm 480 W/m -0,7 C 3,6 C 37,0 km/h (5 Bft) 98 %
19.02.2022 13:40 7,3 C 7,3 C 7,5 C 55 % 1017,9 hPa 0,0 l/m 14,2 km/h (3 Bft) W-SW 256 10 min 0,000 mm 258 W/m -1,1 C 2,2 C 37,0 km/h (5 Bft) 97 %
19.02.2022 13:50 7,8 C 7,3 C 7,8 C 56 % 1017,7 hPa 0,0 l/m 8,5 km/h (2 Bft) W 260 10 min 0,000 mm 462 W/m -0,4 C 6,2 C 30,6 km/h (5 Bft) 97 %
19.02.2022 14:00 7,9 C 7,8 C 8,0 C 55 % 1017,3 hPa 0,0 l/m 13,9 km/h (3 Bft) W-SW 245 10 min 0,229 mm 431 W/m -0,6 C 3,1 C 43,5 km/h (6 Bft) 98 %
19.02.2022 14:10 7,7 C 7,7 C 7,9 C 55 % 1017,3 hPa 0,0 l/m 13,1 km/h (3 Bft) W 263 10 min 0,000 mm 439 W/m -0,8 C 3,3 C 32,2 km/h (5 Bft) 97 %
19.02.2022 14:20 7,5 C 7,5 C 7,8 C 55 % 1017,1 hPa 0,0 l/m 16,9 km/h (3 Bft) W-SW 255 10 min 0,000 mm 413 W/m -0,9 C 1,3 C 40,2 km/h (6 Bft) 98 %
19.02.2022 14:30 7,4 C 7,4 C 7,5 C 54 % 1017,3 hPa 0,0 l/m 12,1 km/h (2 Bft) W 262 10 min 0,000 mm 236 W/m -1,3 C 3,5 C 32,2 km/h (5 Bft) 98 %
19.02.2022 14:40 7,8 C 7,4 C 7,8 C 55 % 1017,3 hPa 0,0 l/m 10,0 km/h (2 Bft) W 274 10 min 0,000 mm 408 W/m -0,7 C 5,2 C 30,6 km/h (5 Bft) 97 %
19.02.2022 14:50 8,1 C 7,8 C 8,1 C 56 % 1017,4 hPa 0,0 l/m 13,9 km/h (3 Bft) SW 236 10 min 0,000 mm 376 W/m -0,1 C 3,3 C 37,0 km/h (5 Bft) 98 %
19.02.2022 15:00 8,2 C 8,1 C 8,2 C 57 % 1017,4 hPa 0,0 l/m 7,6 km/h (2 Bft) W-NW 301 10 min 0,203 mm 394 W/m 0,2 C 7,3 C 27,4 km/h (4 Bft) 98 %
19.02.2022 15:10 8,2 C 8,2 C 8,3 C 55 % 1017,4 hPa 0,0 l/m 9,9 km/h (2 Bft) W-NW 287 0 min 0,000 mm 128 W/m -0,3 C 5,7 C 30,6 km/h (5 Bft) 98 %
19.02.2022 15:20 8,3 C 8,2 C 8,3 C 55 % 1017,4 hPa 0,0 l/m 3,7 km/h (1 Bft) W 269 0 min 0,000 mm 109 W/m -0,2 C 8,3 C 29,0 km/h (5 Bft) 97 %
19.02.2022 15:30 8,2 C 8,2 C 8,3 C 53 % 1017,4 hPa 0,0 l/m 11,2 km/h (2 Bft) SW 232 10 min 0,000 mm 359 W/m -0,8 C 4,9 C 30,6 km/h (5 Bft) 97 %
19.02.2022 15:40 8,4 C 8,2 C 8,4 C 52 % 1017,5 hPa 0,0 l/m 13,2 km/h (3 Bft) SW 236 10 min 0,000 mm 302 W/m -0,9 C 4,0 C 40,2 km/h (6 Bft) 98 %
19.02.2022 15:50 8,3 C 8,3 C 8,4 C 51 % 1017,6 hPa 0,0 l/m 18,8 km/h (3 Bft) W-SW 257 10 min 0,000 mm 278 W/m -1,2 C 1,5 C 38,6 km/h (5 Bft) 97 %
19.02.2022 16:00 8,1 C 8,1 C 8,3 C 53 % 1017,4 hPa 0,0 l/m 15,1 km/h (3 Bft) SW 216 10 min 0,000 mm 253 W/m -0,9 C 2,8 C 40,2 km/h (6 Bft) 97 %
19.02.2022 16:10 7,8 C 7,8 C 8,1 C 53 % 1017,4 hPa 0,0 l/m 13,0 km/h (3 Bft) W-SW 250 0 min 0,178 mm 141 W/m -1,2 C 3,4 C 38,6 km/h (5 Bft) 98 %
19.02.2022 16:20 7,9 C 7,8 C 7,9 C 55 % 1017,2 hPa 0,0 l/m 8,4 km/h (2 Bft) W 271 0 min 0,000 mm 151 W/m -0,6 C 6,4 C 27,4 km/h (4 Bft) 98 %
19.02.2022 16:30 8,0 C 7,9 C 8,1 C 54 % 1017,2 hPa 0,0 l/m 7,3 km/h (2 Bft) SW 219 0 min 0,000 mm 135 W/m -0,7 C 7,3 C 29,0 km/h (5 Bft) 97 %
19.02.2022 16:40 7,9 C 7,9 C 8,1 C 54 % 1017,2 hPa 0,0 l/m 9,4 km/h (2 Bft) W-SW 246 0 min 0,000 mm 98 W/m -0,8 C 5,7 C 29,0 km/h (5 Bft) 100 %
19.02.2022 16:50 7,6 C 7,6 C 7,9 C 55 % 1017,3 hPa 0,0 l/m 8,2 km/h (2 Bft) W-SW 248 0 min 0,000 mm 74 W/m -0,9 C 6,2 C 33,8 km/h (5 Bft) 99 %
19.02.2022 17:00 7,3 C 7,3 C 7,6 C 56 % 1017,5 hPa 0,0 l/m 7,5 km/h (2 Bft) SW 216 0 min 0,101 mm 37 W/m -0,9 C 6,4 C 25,7 km/h (4 Bft) 99 %
19.02.2022 17:10 6,9 C 6,9 C 7,3 C 56 % 1017,4 hPa 0,0 l/m 9,3 km/h (2 Bft) SW 216 0 min 0,000 mm 32 W/m -1,3 C 4,6 C 30,6 km/h (5 Bft) 99 %
19.02.2022 17:20 6,7 C 6,7 C 6,9 C 58 % 1017,2 hPa 0,0 l/m 5,5 km/h (1 Bft) SW 225 0 min 0,000 mm 21 W/m -1,0 C 6,7 C 25,7 km/h (4 Bft) 100 %
19.02.2022 17:30 6,5 C 6,5 C 6,7 C 59 % 1017,1 hPa 0,0 l/m 1,9 km/h (1 Bft) SW 221 0 min 0,000 mm 19 W/m -0,9 C 6,5 C 17,7 km/h (3 Bft) 100 %
19.02.2022 17:40 6,3 C 6,3 C 6,5 C 60 % 1017,0 hPa 0,0 l/m 0,7 km/h (0 Bft) S-SW 210 0 min 0,000 mm 11 W/m -0,9 C 6,3 C 11,3 km/h (2 Bft) 100 %
19.02.2022 17:50 6,1 C 6,1 C 6,3 C 61 % 1016,8 hPa 0,0 l/m 1,5 km/h (1 Bft) S-SW 206 0 min 0,000 mm 0 W/m -0,8 C 6,1 C 14,5 km/h (3 Bft) 100 %
19.02.2022 18:00 5,8 C 5,8 C 6,1 C 62 % 1016,5 hPa 0,0 l/m 1,8 km/h (1 Bft) SW 221 0 min 0,026 mm 0 W/m -0,9 C 5,8 C 11,3 km/h (2 Bft) 100 %
19.02.2022 18:10 5,7 C 5,7 C 5,8 C 63 % 1016,7 hPa 0,0 l/m 3,7 km/h (1 Bft) S-SW 210 0 min 0,000 mm 0 W/m -0,8 C 5,7 C 16,1 km/h (3 Bft) 100 %
19.02.2022 18:20 5,5 C 5,5 C 5,7 C 64 % 1016,7 hPa 0,0 l/m 0,6 km/h (0 Bft) S-SW 202 0 min 0,000 mm 0 W/m -0,8 C 5,5 C 11,3 km/h (2 Bft) 100 %
19.02.2022 18:30 5,2 C 5,2 C 5,5 C 65 % 1016,8 hPa 0,0 l/m 0,9 km/h (0 Bft) S-SW 207 0 min 0,000 mm 0 W/m -0,8 C 5,2 C 9,7 km/h (2 Bft) 100 %
19.02.2022 18:40 5,1 C 5,1 C 5,2 C 66 % 1016,8 hPa 0,0 l/m 1,8 km/h (1 Bft) SW 218 0 min 0,000 mm 0 W/m -0,7 C 5,1 C 14,5 km/h (3 Bft) 99 %
19.02.2022 18:50 5,0 C 5,0 C 5,1 C 67 % 1016,8 hPa 0,0 l/m 1,9 km/h (1 Bft) S-SW 203 0 min 0,000 mm 0 W/m -0,6 C 5,0 C 16,1 km/h (3 Bft) 100 %
19.02.2022 19:00 4,8 C 4,8 C 5,0 C 67 % 1016,8 hPa 0,0 l/m 0,8 km/h (0 Bft) S-SW 203 0 min 0,025 mm 0 W/m -0,8 C 4,8 C 9,7 km/h (2 Bft) 100 %
19.02.2022 19:10 4,6 C 4,6 C 4,8 C 68 % 1016,8 hPa 0,0 l/m 0,4 km/h (0 Bft) S-SW 204 0 min 0,000 mm 0 W/m -0,8 C 4,6 C 8,0 km/h (2 Bft) 100 %
19.02.2022 19:20 4,3 C 4,3 C 4,6 C 70 % 1016,7 hPa 0,0 l/m 0,0 km/h (0 Bft) S 190 0 min 0,000 mm 0 W/m -0,7 C 4,3 C 3,2 km/h (1 Bft) 99 %
19.02.2022 19:30 4,1 C 4,1 C 4,3 C 70 % 1016,6 hPa 0,0 l/m 0,5 km/h (0 Bft) S-SW 196 0 min 0,000 mm 0 W/m -0,9 C 4,1 C 6,4 km/h (2 Bft) 100 %
19.02.2022 19:40 4,0 C 4,0 C 4,1 C 71 % 1016,5 hPa 0,0 l/m 0,7 km/h (0 Bft) S-SW 199 0 min 0,000 mm 0 W/m -0,8 C 4,0 C 8,0 km/h (2 Bft) 100 %
19.02.2022 19:50 3,8 C 3,8 C 4,0 C 71 % 1016,5 hPa 0,0 l/m 1,0 km/h (0 Bft) S 186 0 min 0,000 mm 0 W/m -1,0 C 3,8 C 9,7 km/h (2 Bft) 100 %
19.02.2022 20:00 3,9 C 3,8 C 3,9 C 70 % 1016,5 hPa 0,0 l/m 3,1 km/h (1 Bft) S-SW 196 0 min 0,026 mm 0 W/m -1,1 C 3,9 C 11,3 km/h (2 Bft) 100 %
19.02.2022 20:10 4,1 C 3,9 C 4,1 C 69 % 1016,4 hPa 0,0 l/m 2,8 km/h (1 Bft) S-SW 194 0 min 0,000 mm 0 W/m -1,1 C 4,1 C 14,5 km/h (3 Bft) 100 %
19.02.2022 20:20 4,1 C 4,1 C 4,1 C 69 % 1016,1 hPa 0,0 l/m 3,6 km/h (1 Bft) S-SW 192 0 min 0,000 mm 0 W/m -1,1 C 4,1 C 17,7 km/h (3 Bft) 100 %
19.02.2022 20:30 4,2 C 4,1 C 4,2 C 69 % 1016,1 hPa 0,0 l/m 5,5 km/h (1 Bft) S-SW 209 0 min 0,000 mm 0 W/m -1,0 C 4,2 C 17,7 km/h (3 Bft) 100 %
19.02.2022 20:40 4,2 C 4,2 C 4,2 C 69 % 1016,0 hPa 0,0 l/m 6,8 km/h (2 Bft) S-SW 206 0 min 0,000 mm 0 W/m -1,0 C 3,8 C 19,3 km/h (3 Bft) 100 %
19.02.2022 20:50 4,1 C 4,1 C 4,2 C 68 % 1015,8 hPa 0,0 l/m 4,8 km/h (1 Bft) S-SW 200 0 min 0,000 mm 0 W/m -1,3 C 4,1 C 16,1 km/h (3 Bft) 99 %
19.02.2022 21:00 4,2 C 4,1 C 4,2 C 68 % 1015,7 hPa 0,0 l/m 6,4 km/h (2 Bft) S 190 0 min 0,025 mm 0 W/m -1,2 C 4,2 C 22,5 km/h (4 Bft) 100 %
19.02.2022 21:10 4,1 C 4,1 C 4,2 C 68 % 1015,7 hPa 0,0 l/m 0,0 km/h (0 Bft) N 0 0 min 0,000 mm 0 W/m -1,3 C 4,1 C 0,0 km/h (0 Bft) 98 %
19.02.2022 21:20 4,0 C 3,9 C 4,1 C 69 % 1015,7 hPa 0,0 l/m 0,0 km/h (0 Bft) S 180 0 min 0,000 mm 0 W/m -1,2 C 4,0 C 9,7 km/h (2 Bft) 87 %
19.02.2022 21:30 4,0 C 3,9 C 4,0 C 69 % 1015,7 hPa 0,0 l/m 3,2 km/h (1 Bft) S 180 0 min 0,000 mm 0 W/m -1,2 C 4,0 C 16,1 km/h (3 Bft) 97 %
19.02.2022 21:40 4,1 C 3,9 C 4,1 C 68 % 1015,8 hPa 0,0 l/m 8,0 km/h (2 Bft) S-SW 202 0 min 0,000 mm 0 W/m -1,3 C 2,7 C 19,3 km/h (3 Bft) 98 %
19.02.2022 21:50 4,0 C 3,9 C 4,1 C 69 % 1015,8 hPa 0,0 l/m 1,6 km/h (1 Bft) S 180 0 min 0,000 mm 0 W/m -1,2 C 4,0 C 17,7 km/h (3 Bft) 97 %
19.02.2022 22:00 3,9 C 3,9 C 3,9 C 69 % 1015,8 hPa 0,0 l/m 4,8 km/h (1 Bft) S-SW 202 0 min 0,025 mm 0 W/m -1,3 C 3,9 C 20,9 km/h (4 Bft) 98 %
19.02.2022 22:10 3,9 C 3,9 C 3,9 C 69 % 1015,7 hPa 0,0 l/m 4,8 km/h (1 Bft) S-SW 202 0 min 0,000 mm 0 W/m -1,3 C 3,9 C 16,1 km/h (3 Bft) 98 %
19.02.2022 22:20 3,9 C 3,9 C 3,9 C 69 % 1015,5 hPa 0,0 l/m 4,8 km/h (1 Bft) S-SW 202 0 min 0,000 mm 0 W/m -1,3 C 3,9 C 16,1 km/h (3 Bft) 99 %
19.02.2022 22:30 3,9 C 3,9 C 3,9 C 69 % 1015,5 hPa 0,0 l/m 6,4 km/h (2 Bft) S-SW 202 0 min 0,000 mm 0 W/m -1,3 C 3,9 C 19,3 km/h (3 Bft) 100 %
19.02.2022 22:40 4,0 C 3,9 C 4,0 C 68 % 1015,5 hPa 0,0 l/m 6,4 km/h (2 Bft) S-SW 202 0 min 0,000 mm 0 W/m -1,4 C 4,0 C 20,9 km/h (4 Bft) 100 %
19.02.2022 22:50 4,0 C 3,9 C 4,0 C 69 % 1015,4 hPa 0,0 l/m 6,4 km/h (2 Bft) S-SW 202 0 min 0,000 mm 0 W/m -1,2 C 4,0 C 19,3 km/h (3 Bft) 100 %
19.02.2022 23:00 3,9 C 3,9 C 4,0 C 69 % 1015,2 hPa 0,0 l/m 4,8 km/h (1 Bft) S 180 0 min 0,025 mm 0 W/m -1,3 C 3,9 C 17,7 km/h (3 Bft) 99 %
19.02.2022 23:10 4,0 C 3,9 C 4,0 C 69 % 1015,1 hPa 0,0 l/m 4,8 km/h (1 Bft) S-SW 202 0 min 0,000 mm 0 W/m -1,2 C 4,0 C 20,9 km/h (4 Bft) 100 %
19.02.2022 23:20 4,1 C 4,0 C 4,1 C 69 % 1015,2 hPa 0,0 l/m 6,4 km/h (2 Bft) S-SW 202 0 min 0,000 mm 0 W/m -1,1 C 4,1 C 30,6 km/h (5 Bft) 100 %
19.02.2022 23:30 4,6 C 4,1 C 4,6 C 68 % 1015,0 hPa 0,0 l/m 11,3 km/h (2 Bft) SW 225 0 min 0,000 mm 0 W/m -0,8 C 0,7 C 38,6 km/h (5 Bft) 99 %
19.02.2022 23:40 5,5 C 4,6 C 5,5 C 66 % 1015,3 hPa 0,0 l/m 19,3 km/h (3 Bft) SW 225 0 min 0,000 mm 0 W/m -0,3 C -2,2 C 51,5 km/h (7 Bft) 100 %
19.02.2022 23:50 5,5 C 5,5 C 5,6 C 67 % 1015,5 hPa 0,0 l/m 22,5 km/h (4 Bft) W-SW 247 0 min 0,000 mm 0 W/m -0,1 C -3,4 C 41,8 km/h (6 Bft) 100 %
_ Min-Zeit 19:50 19:50 20:00 15:50 00:00 - 19:20 - - - - - 22:40 08:30 21:10 06:20
Minimum _ 3,8 C 3,8 C 3,9 C 51 % 1008,3 hPa - 0,0 km/h (0 Bft) - - - - - -1,4 C -4,7 C 0,0 km/h (0 Bft) 85 %
_ Max-Zeit 15:40 15:50 15:40 19:40 11:50 00:00 03:30 - - 09:40 14:00 11:00 00:00 15:20 02:50 09:50
Maximum _ 8,4 C 8,3 C 8,4 C 71 % 1018,6 hPa 0,0 l/m 22,5 km/h
W-SW (4 Bft)
- - 20 min 0,229 mm 554 W/m 1,3 C 8,3 C 53,1 km/h
W-SW (7 Bft)
100 %
Durchschnitt _ 5,7 C 5,7 C 5,8 C 64 % 1015,2 hPa #0,0 l/m 11,4 km/h (2 Bft) W-SW - #6:40 h #2,082 mm 273 W/m -0,6 C 1,9 C 32,4 km/h (5 Bft) 98 %
PRIVATE WETTERSTATION BILLIGHEIM-ALLFELD - www.neckar-odenwald-wetter.de - Holger Sonntag